sensor_id;sensor_type;location;lat;lon;timestamp;P1;durP1;ratioP1;P2;durP2;ratioP2
8584;SDS011;7180;52.742;11.420;2022-12-16T00:00:03;22.60;;;18.73;;
8584;SDS011;7180;52.742;11.420;2022-12-16T00:02:28;22.63;;;18.50;;
8584;SDS011;7180;52.742;11.420;2022-12-16T00:04:54;23.67;;;19.27;;
8584;SDS011;7180;52.742;11.420;2022-12-16T00:07:21;25.70;;;19.77;;
8584;SDS011;7180;52.742;11.420;2022-12-16T00:09:46;24.67;;;19.23;;
8584;SDS011;7180;52.742;11.420;2022-12-16T00:12:11;23.50;;;19.47;;
8584;SDS011;7180;52.742;11.420;2022-12-16T00:14:36;21.10;;;18.80;;
8584;SDS011;7180;52.742;11.420;2022-12-16T00:17:02;23.00;;;19.40;;
8584;SDS011;7180;52.742;11.420;2022-12-16T00:19:27;23.60;;;19.53;;
8584;SDS011;7180;52.742;11.420;2022-12-16T00:21:52;23.03;;;19.43;;
8584;SDS011;7180;52.742;11.420;2022-12-16T00:24:17;22.23;;;18.93;;
8584;SDS011;7180;52.742;11.420;2022-12-16T00:26:42;24.87;;;19.60;;
8584;SDS011;7180;52.742;11.420;2022-12-16T00:29:08;22.07;;;19.10;;
8584;SDS011;7180;52.742;11.420;2022-12-16T00:31:35;22.87;;;19.20;;
8584;SDS011;7180;52.742;11.420;2022-12-16T00:34:00;24.53;;;19.83;;
8584;SDS011;7180;52.742;11.420;2022-12-16T00:36:25;25.53;;;19.27;;
8584;SDS011;7180;52.742;11.420;2022-12-16T00:38:51;23.07;;;19.50;;
8584;SDS011;7180;52.742;11.420;2022-12-16T00:41:16;25.07;;;19.93;;
8584;SDS011;7180;52.742;11.420;2022-12-16T00:43:41;25.77;;;19.27;;
8584;SDS011;7180;52.742;11.420;2022-12-16T00:46:06;26.10;;;20.00;;
8584;SDS011;7180;52.742;11.420;2022-12-16T00:48:31;26.77;;;20.60;;
8584;SDS011;7180;52.742;11.420;2022-12-16T00:50:57;23.63;;;19.90;;
8584;SDS011;7180;52.742;11.420;2022-12-16T00:53:23;22.93;;;18.73;;
8584;SDS011;7180;52.742;11.420;2022-12-16T00:55:48;24.87;;;19.87;;
8584;SDS011;7180;52.742;11.420;2022-12-16T00:58:13;25.97;;;20.00;;
8584;SDS011;7180;52.742;11.420;2022-12-16T01:00:39;28.10;;;22.23;;
8584;SDS011;7180;52.742;11.420;2022-12-16T01:03:04;27.67;;;21.47;;
8584;SDS011;7180;52.742;11.420;2022-12-16T01:05:29;25.17;;;19.70;;
8584;SDS011;7180;52.742;11.420;2022-12-16T01:07:54;23.30;;;19.37;;
8584;SDS011;7180;52.742;11.420;2022-12-16T01:10:20;26.27;;;19.07;;
8584;SDS011;7180;52.742;11.420;2022-12-16T01:12:46;24.37;;;20.53;;
8584;SDS011;7180;52.742;11.420;2022-12-16T01:15:11;25.53;;;20.77;;
8584;SDS011;7180;52.742;11.420;2022-12-16T01:17:37;27.50;;;21.10;;
8584;SDS011;7180;52.742;11.420;2022-12-16T01:20:02;24.70;;;19.53;;
8584;SDS011;7180;52.742;11.420;2022-12-16T01:22:29;25.20;;;20.53;;
8584;SDS011;7180;52.742;11.420;2022-12-16T01:24:54;26.40;;;20.67;;
8584;SDS011;7180;52.742;11.420;2022-12-16T01:27:19;23.23;;;20.10;;
8584;SDS011;7180;52.742;11.420;2022-12-16T01:29:44;22.77;;;20.23;;
8584;SDS011;7180;52.742;11.420;2022-12-16T01:32:12;23.93;;;20.73;;
8584;SDS011;7180;52.742;11.420;2022-12-16T01:34:38;26.13;;;21.53;;
8584;SDS011;7180;52.742;11.420;2022-12-16T01:37:03;28.27;;;21.13;;
8584;SDS011;7180;52.742;11.420;2022-12-16T01:39:28;29.97;;;22.70;;
8584;SDS011;7180;52.742;11.420;2022-12-16T01:41:54;31.03;;;23.47;;
8584;SDS011;7180;52.742;11.420;2022-12-16T01:44:20;28.17;;;22.33;;
8584;SDS011;7180;52.742;11.420;2022-12-16T01:46:52;27.80;;;22.17;;
8584;SDS011;7180;52.742;11.420;2022-12-16T01:49:33;27.63;;;21.83;;
8584;SDS011;7180;52.742;11.420;2022-12-16T01:52:01;27.03;;;21.33;;
8584;SDS011;7180;52.742;11.420;2022-12-16T01:54:30;25.70;;;21.20;;
8584;SDS011;7180;52.742;11.420;2022-12-16T01:57:02;25.97;;;20.70;;
8584;SDS011;7180;52.742;11.420;2022-12-16T01:59:29;26.67;;;21.90;;
8584;SDS011;7180;52.742;11.420;2022-12-16T02:01:55;25.07;;;20.73;;
8584;SDS011;7180;52.742;11.420;2022-12-16T02:04:22;25.90;;;21.00;;
8584;SDS011;7180;52.742;11.420;2022-12-16T02:06:47;24.57;;;20.87;;
8584;SDS011;7180;52.742;11.420;2022-12-16T02:09:12;23.97;;;19.97;;
8584;SDS011;7180;52.742;11.420;2022-12-16T02:16:58;24.33;;;20.57;;
8584;SDS011;7180;52.742;11.420;2022-12-16T02:32:24;28.23;;;21.87;;
8584;SDS011;7180;52.742;11.420;2022-12-16T02:35:02;27.77;;;21.73;;
8584;SDS011;7180;52.742;11.420;2022-12-16T02:39:58;24.70;;;20.42;;
8584;SDS011;7180;52.742;11.420;2022-12-16T02:47:32;27.33;;;21.60;;
8584;SDS011;7180;52.742;11.420;2022-12-16T02:49:58;23.20;;;20.30;;
8584;SDS011;7180;52.742;11.420;2022-12-16T02:52:24;22.60;;;19.80;;
8584;SDS011;7180;52.742;11.420;2022-12-16T02:54:52;24.77;;;19.87;;
8584;SDS011;7180;52.742;11.420;2022-12-16T03:00:05;28.50;;;21.63;;
8584;SDS011;7180;52.742;11.420;2022-12-16T03:02:54;25.47;;;20.77;;
8584;SDS011;7180;52.742;11.420;2022-12-16T03:05:22;25.10;;;20.57;;
8584;SDS011;7180;52.742;11.420;2022-12-16T03:07:49;25.17;;;21.37;;
8584;SDS011;7180;52.742;11.420;2022-12-16T03:10:16;29.13;;;22.23;;
8584;SDS011;7180;52.742;11.420;2022-12-16T03:12:44;26.33;;;21.00;;
8584;SDS011;7180;52.742;11.420;2022-12-16T03:15:09;28.70;;;21.80;;
8584;SDS011;7180;52.742;11.420;2022-12-16T03:17:36;27.93;;;22.33;;
8584;SDS011;7180;52.742;11.420;2022-12-16T03:20:06;29.07;;;22.27;;
8584;SDS011;7180;52.742;11.420;2022-12-16T03:22:33;28.50;;;21.50;;
8584;SDS011;7180;52.742;11.420;2022-12-16T03:25:00;28.80;;;21.87;;
8584;SDS011;7180;52.742;11.420;2022-12-16T03:27:28;27.37;;;21.80;;
8584;SDS011;7180;52.742;11.420;2022-12-16T03:32:50;25.43;;;21.53;;
8584;SDS011;7180;52.742;11.420;2022-12-16T03:35:26;24.93;;;21.47;;
8584;SDS011;7180;52.742;11.420;2022-12-16T03:37:53;30.93;;;22.10;;
8584;SDS011;7180;52.742;11.420;2022-12-16T03:40:19;26.70;;;20.47;;
8584;SDS011;7180;52.742;11.420;2022-12-16T03:42:45;27.77;;;21.47;;
8584;SDS011;7180;52.742;11.420;2022-12-16T03:45:12;28.13;;;22.27;;
8584;SDS011;7180;52.742;11.420;2022-12-16T03:47:38;25.63;;;21.50;;
8584;SDS011;7180;52.742;11.420;2022-12-16T03:50:04;28.17;;;21.47;;
8584;SDS011;7180;52.742;11.420;2022-12-16T03:52:29;26.53;;;22.27;;
8584;SDS011;7180;52.742;11.420;2022-12-16T03:54:54;26.07;;;21.03;;
8584;SDS011;7180;52.742;11.420;2022-12-16T03:57:19;26.43;;;21.43;;
8584;SDS011;7180;52.742;11.420;2022-12-16T03:59:44;26.87;;;21.73;;
8584;SDS011;7180;52.742;11.420;2022-12-16T04:02:10;29.33;;;22.77;;
8584;SDS011;7180;52.742;11.420;2022-12-16T04:04:35;26.20;;;21.20;;
8584;SDS011;7180;52.742;11.420;2022-12-16T04:07:00;27.43;;;22.10;;
8584;SDS011;7180;52.742;11.420;2022-12-16T04:09:44;29.67;;;22.90;;
8584;SDS011;7180;52.742;11.420;2022-12-16T04:12:09;28.27;;;22.97;;
8584;SDS011;7180;52.742;11.420;2022-12-16T04:14:53;27.73;;;21.43;;
8584;SDS011;7180;52.742;11.420;2022-12-16T04:17:37;28.53;;;21.63;;
8584;SDS011;7180;52.742;11.420;2022-12-16T04:20:22;27.07;;;21.37;;
8584;SDS011;7180;52.742;11.420;2022-12-16T04:23:08;29.77;;;22.70;;
8584;SDS011;7180;52.742;11.420;2022-12-16T04:25:52;29.30;;;22.70;;
8584;SDS011;7180;52.742;11.420;2022-12-16T04:28:17;28.63;;;22.53;;
8584;SDS011;7180;52.742;11.420;2022-12-16T04:30:42;28.87;;;21.87;;
8584;SDS011;7180;52.742;11.420;2022-12-16T04:33:10;26.33;;;20.90;;
8584;SDS011;7180;52.742;11.420;2022-12-16T04:35:55;28.07;;;22.17;;
8584;SDS011;7180;52.742;11.420;2022-12-16T04:38:39;28.47;;;23.10;;
8584;SDS011;7180;52.742;11.420;2022-12-16T04:41:23;30.80;;;22.73;;
8584;SDS011;7180;52.742;11.420;2022-12-16T04:44:06;28.13;;;22.43;;
8584;SDS011;7180;52.742;11.420;2022-12-16T04:46:50;29.00;;;21.70;;
8584;SDS011;7180;52.742;11.420;2022-12-16T04:49:34;24.80;;;21.27;;
8584;SDS011;7180;52.742;11.420;2022-12-16T04:52:18;29.20;;;22.07;;
8584;SDS011;7180;52.742;11.420;2022-12-16T04:55:02;28.60;;;21.47;;
8584;SDS011;7180;52.742;11.420;2022-12-16T04:57:50;29.37;;;22.20;;
8584;SDS011;7180;52.742;11.420;2022-12-16T05:00:35;29.27;;;21.97;;
8584;SDS011;7180;52.742;11.420;2022-12-16T05:03:19;26.93;;;20.87;;
8584;SDS011;7180;52.742;11.420;2022-12-16T05:06:02;24.70;;;20.20;;
8584;SDS011;7180;52.742;11.420;2022-12-16T05:08:46;28.77;;;21.43;;
8584;SDS011;7180;52.742;11.420;2022-12-16T05:11:30;26.87;;;20.87;;
8584;SDS011;7180;52.742;11.420;2022-12-16T05:14:14;30.10;;;20.83;;
8584;SDS011;7180;52.742;11.420;2022-12-16T05:16:58;28.80;;;21.20;;
8584;SDS011;7180;52.742;11.420;2022-12-16T05:19:42;27.37;;;21.33;;
8584;SDS011;7180;52.742;11.420;2022-12-16T05:22:26;28.23;;;21.77;;
8584;SDS011;7180;52.742;11.420;2022-12-16T05:25:10;27.83;;;22.03;;
8584;SDS011;7180;52.742;11.420;2022-12-16T05:27:54;29.23;;;21.60;;
8584;SDS011;7180;52.742;11.420;2022-12-16T05:30:38;28.57;;;21.30;;
8584;SDS011;7180;52.742;11.420;2022-12-16T05:33:22;26.77;;;21.30;;
8584;SDS011;7180;52.742;11.420;2022-12-16T05:36:06;27.23;;;21.90;;
8584;SDS011;7180;52.742;11.420;2022-12-16T05:38:50;29.43;;;21.57;;
8584;SDS011;7180;52.742;11.420;2022-12-16T05:41:34;27.43;;;22.27;;
8584;SDS011;7180;52.742;11.420;2022-12-16T05:44:18;32.00;;;22.83;;
8584;SDS011;7180;52.742;11.420;2022-12-16T05:47:02;30.77;;;22.20;;
8584;SDS011;7180;52.742;11.420;2022-12-16T05:49:46;26.57;;;21.37;;
8584;SDS011;7180;52.742;11.420;2022-12-16T05:52:30;28.77;;;22.40;;
8584;SDS011;7180;52.742;11.420;2022-12-16T05:55:13;32.27;;;22.13;;
8584;SDS011;7180;52.742;11.420;2022-12-16T05:57:57;27.57;;;20.77;;
8584;SDS011;7180;52.742;11.420;2022-12-16T06:00:41;26.93;;;20.67;;
8584;SDS011;7180;52.742;11.420;2022-12-16T06:03:25;26.87;;;20.23;;
8584;SDS011;7180;52.742;11.420;2022-12-16T06:06:09;25.33;;;20.03;;
8584;SDS011;7180;52.742;11.420;2022-12-16T06:08:53;24.67;;;20.43;;
8584;SDS011;7180;52.742;11.420;2022-12-16T06:11:37;27.27;;;19.40;;
8584;SDS011;7180;52.742;11.420;2022-12-16T06:14:21;27.17;;;19.37;;
8584;SDS011;7180;52.742;11.420;2022-12-16T06:17:05;26.83;;;19.10;;
8584;SDS011;7180;52.742;11.420;2022-12-16T06:19:49;20.80;;;17.93;;
8584;SDS011;7180;52.742;11.420;2022-12-16T06:22:33;28.27;;;19.30;;
8584;SDS011;7180;52.742;11.420;2022-12-16T06:25:34;22.50;;;18.27;;
8584;SDS011;7180;52.742;11.420;2022-12-16T06:28:18;25.10;;;19.53;;
8584;SDS011;7180;52.742;11.420;2022-12-16T06:31:01;25.67;;;19.93;;
8584;SDS011;7180;52.742;11.420;2022-12-16T06:33:45;23.83;;;18.77;;
8584;SDS011;7180;52.742;11.420;2022-12-16T06:36:29;26.23;;;19.90;;
8584;SDS011;7180;52.742;11.420;2022-12-16T06:39:13;25.80;;;20.23;;
8584;SDS011;7180;52.742;11.420;2022-12-16T06:41:57;23.07;;;18.97;;
8584;SDS011;7180;52.742;11.420;2022-12-16T06:44:41;25.47;;;20.17;;
8584;SDS011;7180;52.742;11.420;2022-12-16T06:47:25;25.30;;;18.97;;
8584;SDS011;7180;52.742;11.420;2022-12-16T06:50:09;26.33;;;21.53;;
8584;SDS011;7180;52.742;11.420;2022-12-16T06:52:53;28.57;;;21.53;;
8584;SDS011;7180;52.742;11.420;2022-12-16T06:55:37;31.57;;;23.40;;
8584;SDS011;7180;52.742;11.420;2022-12-16T06:58:21;30.40;;;23.27;;
8584;SDS011;7180;52.742;11.420;2022-12-16T07:01:04;32.77;;;24.00;;
8584;SDS011;7180;52.742;11.420;2022-12-16T07:03:48;33.67;;;23.30;;
8584;SDS011;7180;52.742;11.420;2022-12-16T07:06:32;39.20;;;23.80;;
8584;SDS011;7180;52.742;11.420;2022-12-16T07:09:16;36.67;;;22.73;;
8584;SDS011;7180;52.742;11.420;2022-12-16T07:12:00;35.73;;;24.43;;
8584;SDS011;7180;52.742;11.420;2022-12-16T07:14:44;61.17;;;28.40;;
8584;SDS011;7180;52.742;11.420;2022-12-16T07:17:28;65.57;;;27.83;;
8584;SDS011;7180;52.742;11.420;2022-12-16T07:20:12;37.60;;;24.10;;
8584;SDS011;7180;52.742;11.420;2022-12-16T07:22:56;34.93;;;22.83;;
8584;SDS011;7180;52.742;11.420;2022-12-16T07:25:40;49.93;;;25.03;;
8584;SDS011;7180;52.742;11.420;2022-12-16T07:28:24;43.90;;;24.33;;
8584;SDS011;7180;52.742;11.420;2022-12-16T07:31:08;38.27;;;23.23;;
8584;SDS011;7180;52.742;11.420;2022-12-16T07:33:52;29.73;;;22.70;;
8584;SDS011;7180;52.742;11.420;2022-12-16T07:36:36;30.53;;;22.23;;
8584;SDS011;7180;52.742;11.420;2022-12-16T07:39:20;47.10;;;24.53;;
8584;SDS011;7180;52.742;11.420;2022-12-16T07:42:03;48.07;;;24.73;;
8584;SDS011;7180;52.742;11.420;2022-12-16T07:44:47;31.80;;;21.97;;
8584;SDS011;7180;52.742;11.420;2022-12-16T07:47:31;26.13;;;19.83;;
8584;SDS011;7180;52.742;11.420;2022-12-16T07:50:15;26.80;;;19.47;;
8584;SDS011;7180;52.742;11.420;2022-12-16T07:52:59;28.60;;;20.90;;
8584;SDS011;7180;52.742;11.420;2022-12-16T07:55:43;29.43;;;20.53;;
8584;SDS011;7180;52.742;11.420;2022-12-16T07:58:28;26.47;;;19.77;;
8584;SDS011;7180;52.742;11.420;2022-12-16T08:01:12;33.37;;;21.33;;
8584;SDS011;7180;52.742;11.420;2022-12-16T08:03:56;53.53;;;26.17;;
8584;SDS011;7180;52.742;11.420;2022-12-16T08:06:40;42.73;;;24.13;;
8584;SDS011;7180;52.742;11.420;2022-12-16T08:09:24;40.43;;;23.03;;
8584;SDS011;7180;52.742;11.420;2022-12-16T08:12:08;48.53;;;24.77;;
8584;SDS011;7180;52.742;11.420;2022-12-16T08:14:51;46.00;;;26.30;;
8584;SDS011;7180;52.742;11.420;2022-12-16T08:17:35;34.17;;;21.87;;
8584;SDS011;7180;52.742;11.420;2022-12-16T08:20:19;28.27;;;21.63;;
8584;SDS011;7180;52.742;11.420;2022-12-16T08:23:03;25.17;;;20.67;;
8584;SDS011;7180;52.742;11.420;2022-12-16T08:25:47;28.50;;;21.80;;
8584;SDS011;7180;52.742;11.420;2022-12-16T08:28:31;31.23;;;23.00;;
8584;SDS011;7180;52.742;11.420;2022-12-16T08:31:15;28.53;;;22.33;;
8584;SDS011;7180;52.742;11.420;2022-12-16T08:33:59;30.27;;;23.20;;
8584;SDS011;7180;52.742;11.420;2022-12-16T08:36:43;26.87;;;21.57;;
8584;SDS011;7180;52.742;11.420;2022-12-16T08:39:27;31.40;;;23.37;;
8584;SDS011;7180;52.742;11.420;2022-12-16T08:42:11;28.80;;;22.57;;
8584;SDS011;7180;52.742;11.420;2022-12-16T08:44:55;27.97;;;22.33;;
8584;SDS011;7180;52.742;11.420;2022-12-16T08:47:39;32.83;;;22.70;;
8584;SDS011;7180;52.742;11.420;2022-12-16T08:50:23;28.13;;;22.43;;
8584;SDS011;7180;52.742;11.420;2022-12-16T08:53:06;27.83;;;22.20;;
8584;SDS011;7180;52.742;11.420;2022-12-16T08:55:50;31.43;;;23.03;;
8584;SDS011;7180;52.742;11.420;2022-12-16T08:58:35;27.33;;;22.90;;
8584;SDS011;7180;52.742;11.420;2022-12-16T09:01:18;27.70;;;22.00;;
8584;SDS011;7180;52.742;11.420;2022-12-16T09:04:02;28.90;;;23.00;;
8584;SDS011;7180;52.742;11.420;2022-12-16T09:06:46;31.10;;;22.17;;
8584;SDS011;7180;52.742;11.420;2022-12-16T09:09:30;30.90;;;23.47;;
8584;SDS011;7180;52.742;11.420;2022-12-16T09:12:15;29.63;;;22.13;;
8584;SDS011;7180;52.742;11.420;2022-12-16T09:14:58;29.10;;;22.43;;
8584;SDS011;7180;52.742;11.420;2022-12-16T09:17:42;28.00;;;22.77;;
8584;SDS011;7180;52.742;11.420;2022-12-16T09:20:26;26.40;;;22.23;;
8584;SDS011;7180;52.742;11.420;2022-12-16T09:23:10;26.43;;;21.70;;
8584;SDS011;7180;52.742;11.420;2022-12-16T09:25:54;30.00;;;22.77;;
8584;SDS011;7180;52.742;11.420;2022-12-16T09:28:38;27.70;;;22.17;;
8584;SDS011;7180;52.742;11.420;2022-12-16T09:31:22;30.03;;;22.83;;
8584;SDS011;7180;52.742;11.420;2022-12-16T09:34:06;33.47;;;23.80;;
8584;SDS011;7180;52.742;11.420;2022-12-16T09:36:50;29.80;;;23.30;;
8584;SDS011;7180;52.742;11.420;2022-12-16T09:39:34;28.37;;;23.53;;
8584;SDS011;7180;52.742;11.420;2022-12-16T09:48:10;30.83;;;23.33;;
8584;SDS011;7180;52.742;11.420;2022-12-16T09:50:55;31.93;;;24.57;;
8584;SDS011;7180;52.742;11.420;2022-12-16T09:53:40;30.93;;;23.97;;
8584;SDS011;7180;52.742;11.420;2022-12-16T09:56:27;31.43;;;23.80;;
8584;SDS011;7180;52.742;11.420;2022-12-16T09:59:13;29.40;;;23.60;;
8584;SDS011;7180;52.742;11.420;2022-12-16T10:01:58;30.53;;;23.17;;
8584;SDS011;7180;52.742;11.420;2022-12-16T10:04:42;30.30;;;23.97;;
8584;SDS011;7180;52.742;11.420;2022-12-16T10:07:27;32.60;;;24.53;;
8584;SDS011;7180;52.742;11.420;2022-12-16T10:18:40;32.23;;;25.77;;
8584;SDS011;7180;52.742;11.420;2022-12-16T10:21:27;32.43;;;26.03;;
8584;SDS011;7180;52.742;11.420;2022-12-16T10:27:02;32.53;;;25.13;;
8584;SDS011;7180;52.742;11.420;2022-12-16T10:29:48;34.40;;;26.70;;
8584;SDS011;7180;52.742;11.420;2022-12-16T10:35:23;31.97;;;26.70;;
8584;SDS011;7180;52.742;11.420;2022-12-16T10:38:14;33.00;;;25.63;;
8584;SDS011;7180;52.742;11.420;2022-12-16T10:41:01;34.73;;;26.43;;
8584;SDS011;7180;52.742;11.420;2022-12-16T10:43:46;34.20;;;26.80;;
8584;SDS011;7180;52.742;11.420;2022-12-16T10:46:32;36.17;;;27.77;;
8584;SDS011;7180;52.742;11.420;2022-12-16T10:49:15;33.57;;;26.83;;
8584;SDS011;7180;52.742;11.420;2022-12-16T10:51:59;37.43;;;27.77;;
8584;SDS011;7180;52.742;11.420;2022-12-16T11:00:42;35.93;;;26.67;;
8584;SDS011;7180;52.742;11.420;2022-12-16T11:03:27;35.83;;;26.87;;
8584;SDS011;7180;52.742;11.420;2022-12-16T11:06:12;34.07;;;26.23;;
8584;SDS011;7180;52.742;11.420;2022-12-16T11:09:12;35.47;;;25.60;;
8584;SDS011;7180;52.742;11.420;2022-12-16T11:12:12;33.40;;;25.80;;
8584;SDS011;7180;52.742;11.420;2022-12-16T11:14:56;36.17;;;26.80;;
8584;SDS011;7180;52.742;11.420;2022-12-16T11:17:40;33.90;;;26.47;;
8584;SDS011;7180;52.742;11.420;2022-12-16T11:20:31;32.20;;;25.33;;
8584;SDS011;7180;52.742;11.420;2022-12-16T11:26:03;34.37;;;26.00;;
8584;SDS011;7180;52.742;11.420;2022-12-16T11:31:47;32.17;;;26.27;;
8584;SDS011;7180;52.742;11.420;2022-12-16T11:34:33;32.17;;;25.10;;
8584;SDS011;7180;52.742;11.420;2022-12-16T11:37:17;32.33;;;25.20;;
8584;SDS011;7180;52.742;11.420;2022-12-16T11:40:11;33.07;;;26.20;;
8584;SDS011;7180;52.742;11.420;2022-12-16T11:42:56;34.40;;;24.90;;
8584;SDS011;7180;52.742;11.420;2022-12-16T11:45:40;32.20;;;24.90;;
8584;SDS011;7180;52.742;11.420;2022-12-16T11:48:41;33.70;;;27.20;;
8584;SDS011;7180;52.742;11.420;2022-12-16T11:51:27;36.87;;;26.07;;
8584;SDS011;7180;52.742;11.420;2022-12-16T11:57:00;34.83;;;26.70;;
8584;SDS011;7180;52.742;11.420;2022-12-16T11:59:47;32.93;;;26.00;;
8584;SDS011;7180;52.742;11.420;2022-12-16T12:02:35;31.63;;;26.03;;
8584;SDS011;7180;52.742;11.420;2022-12-16T12:05:35;35.30;;;26.33;;
8584;SDS011;7180;52.742;11.420;2022-12-16T12:08:24;34.70;;;26.63;;
8584;SDS011;7180;52.742;11.420;2022-12-16T12:11:23;32.90;;;25.63;;
8584;SDS011;7180;52.742;11.420;2022-12-16T12:14:33;30.00;;;25.17;;
8584;SDS011;7180;52.742;11.420;2022-12-16T12:20:23;32.07;;;26.33;;
8584;SDS011;7180;52.742;11.420;2022-12-16T12:23:09;29.97;;;24.87;;
8584;SDS011;7180;52.742;11.420;2022-12-16T12:28:58;31.03;;;26.07;;
8584;SDS011;7180;52.742;11.420;2022-12-16T12:34:43;30.03;;;25.23;;
8584;SDS011;7180;52.742;11.420;2022-12-16T12:37:29;34.93;;;27.20;;
8584;SDS011;7180;52.742;11.420;2022-12-16T12:40:38;34.80;;;26.33;;
8584;SDS011;7180;52.742;11.420;2022-12-16T12:44:26;33.97;;;26.77;;
8584;SDS011;7180;52.742;11.420;2022-12-16T12:46:41;32.07;;;26.13;;
8584;SDS011;7180;52.742;11.420;2022-12-16T12:55:15;35.53;;;27.03;;
8584;SDS011;7180;52.742;11.420;2022-12-16T12:58:00;34.83;;;25.53;;
8584;SDS011;7180;52.742;11.420;2022-12-16T13:00:46;32.23;;;26.13;;
8584;SDS011;7180;52.742;11.420;2022-12-16T13:03:33;31.73;;;26.60;;
8584;SDS011;7180;52.742;11.420;2022-12-16T13:06:19;34.70;;;27.47;;
8584;SDS011;7180;52.742;11.420;2022-12-16T13:09:21;35.50;;;28.17;;
8584;SDS011;7180;52.742;11.420;2022-12-16T13:20:36;37.47;;;28.17;;
8584;SDS011;7180;52.742;11.420;2022-12-16T13:26:10;39.10;;;28.53;;
8584;SDS011;7180;52.742;11.420;2022-12-16T13:43:54;39.37;;;29.17;;
8584;SDS011;7180;52.742;11.420;2022-12-16T13:46:45;41.13;;;29.53;;
8584;SDS011;7180;52.742;11.420;2022-12-16T13:52:20;37.67;;;29.37;;
8584;SDS011;7180;52.742;11.420;2022-12-16T13:58:20;35.97;;;28.13;;
8584;SDS011;7180;52.742;11.420;2022-12-16T14:01:08;34.93;;;28.73;;
8584;SDS011;7180;52.742;11.420;2022-12-16T14:03:53;36.23;;;29.37;;
8584;SDS011;7180;52.742;11.420;2022-12-16T14:06:37;35.47;;;27.90;;
8584;SDS011;7180;52.742;11.420;2022-12-16T14:09:23;31.13;;;26.63;;
8584;SDS011;7180;52.742;11.420;2022-12-16T14:12:13;35.53;;;27.27;;
8584;SDS011;7180;52.742;11.420;2022-12-16T14:15:00;33.57;;;26.50;;
8584;SDS011;7180;52.742;11.420;2022-12-16T14:17:51;34.87;;;28.03;;
8584;SDS011;7180;52.742;11.420;2022-12-16T14:20:40;35.30;;;27.83;;
8584;SDS011;7180;52.742;11.420;2022-12-16T14:26:11;32.13;;;27.27;;
8584;SDS011;7180;52.742;11.420;2022-12-16T14:28:55;31.87;;;25.93;;
8584;SDS011;7180;52.742;11.420;2022-12-16T14:31:41;33.00;;;26.87;;
8584;SDS011;7180;52.742;11.420;2022-12-16T14:34:26;35.43;;;27.57;;
8584;SDS011;7180;52.742;11.420;2022-12-16T14:39:54;33.47;;;27.70;;
8584;SDS011;7180;52.742;11.420;2022-12-16T14:42:38;34.27;;;27.70;;
8584;SDS011;7180;52.742;11.420;2022-12-16T14:45:32;34.33;;;28.10;;
8584;SDS011;7180;52.742;11.420;2022-12-16T14:51:18;34.13;;;27.90;;
8584;SDS011;7180;52.742;11.420;2022-12-16T14:57:09;33.50;;;27.63;;
8584;SDS011;7180;52.742;11.420;2022-12-16T15:00:00;35.60;;;27.67;;
8584;SDS011;7180;52.742;11.420;2022-12-16T15:02:45;34.80;;;28.23;;
8584;SDS011;7180;52.742;11.420;2022-12-16T15:05:31;35.00;;;28.97;;
8584;SDS011;7180;52.742;11.420;2022-12-16T15:08:15;36.60;;;26.93;;
8584;SDS011;7180;52.742;11.420;2022-12-16T15:10:59;37.20;;;29.13;;
8584;SDS011;7180;52.742;11.420;2022-12-16T15:13:43;42.47;;;29.13;;
8584;SDS011;7180;52.742;11.420;2022-12-16T15:16:29;37.17;;;27.93;;
8584;SDS011;7180;52.742;11.420;2022-12-16T15:19:15;34.67;;;28.80;;
8584;SDS011;7180;52.742;11.420;2022-12-16T15:22:01;35.27;;;29.20;;
8584;SDS011;7180;52.742;11.420;2022-12-16T15:24:45;37.83;;;28.80;;
8584;SDS011;7180;52.742;11.420;2022-12-16T15:27:34;36.13;;;29.43;;
8584;SDS011;7180;52.742;11.420;2022-12-16T15:30:34;39.93;;;30.23;;
8584;SDS011;7180;52.742;11.420;2022-12-16T15:33:18;38.43;;;28.30;;
8584;SDS011;7180;52.742;11.420;2022-12-16T15:36:03;35.83;;;28.20;;
8584;SDS011;7180;52.742;11.420;2022-12-16T15:38:47;35.60;;;28.43;;
8584;SDS011;7180;52.742;11.420;2022-12-16T15:41:32;37.33;;;28.70;;
8584;SDS011;7180;52.742;11.420;2022-12-16T15:44:20;38.53;;;29.77;;
8584;SDS011;7180;52.742;11.420;2022-12-16T15:47:04;36.13;;;29.30;;
8584;SDS011;7180;52.742;11.420;2022-12-16T15:49:48;35.53;;;28.87;;
8584;SDS011;7180;52.742;11.420;2022-12-16T15:52:37;37.93;;;28.97;;
8584;SDS011;7180;52.742;11.420;2022-12-16T16:01:07;34.93;;;27.80;;
8584;SDS011;7180;52.742;11.420;2022-12-16T16:03:52;36.93;;;29.67;;
8584;SDS011;7180;52.742;11.420;2022-12-16T16:06:36;39.00;;;30.53;;
8584;SDS011;7180;52.742;11.420;2022-12-16T16:12:04;38.90;;;28.97;;
8584;SDS011;7180;52.742;11.420;2022-12-16T16:14:48;37.87;;;29.40;;
8584;SDS011;7180;52.742;11.420;2022-12-16T16:17:32;36.57;;;29.27;;
8584;SDS011;7180;52.742;11.420;2022-12-16T16:20:16;36.30;;;29.27;;
8584;SDS011;7180;52.742;11.420;2022-12-16T16:23:00;37.47;;;28.70;;
8584;SDS011;7180;52.742;11.420;2022-12-16T16:25:45;37.53;;;29.23;;
8584;SDS011;7180;52.742;11.420;2022-12-16T16:28:29;40.93;;;29.67;;
8584;SDS011;7180;52.742;11.420;2022-12-16T16:31:13;38.27;;;29.07;;
8584;SDS011;7180;52.742;11.420;2022-12-16T16:33:57;36.60;;;28.70;;
8584;SDS011;7180;52.742;11.420;2022-12-16T16:36:41;40.23;;;29.87;;
8584;SDS011;7180;52.742;11.420;2022-12-16T16:39:25;40.83;;;31.87;;
8584;SDS011;7180;52.742;11.420;2022-12-16T16:42:09;37.43;;;29.37;;
8584;SDS011;7180;52.742;11.420;2022-12-16T16:44:53;39.50;;;30.23;;
8584;SDS011;7180;52.742;11.420;2022-12-16T16:47:36;39.17;;;30.27;;
8584;SDS011;7180;52.742;11.420;2022-12-16T16:50:20;37.67;;;29.17;;
8584;SDS011;7180;52.742;11.420;2022-12-16T16:53:04;35.93;;;28.33;;
8584;SDS011;7180;52.742;11.420;2022-12-16T16:55:51;38.97;;;29.73;;
8584;SDS011;7180;52.742;11.420;2022-12-16T16:58:35;35.87;;;28.77;;
8584;SDS011;7180;52.742;11.420;2022-12-16T17:01:19;36.53;;;29.40;;
8584;SDS011;7180;52.742;11.420;2022-12-16T17:04:03;35.83;;;28.60;;
8584;SDS011;7180;52.742;11.420;2022-12-16T17:06:47;37.33;;;28.53;;
8584;SDS011;7180;52.742;11.420;2022-12-16T17:09:31;39.40;;;29.57;;
8584;SDS011;7180;52.742;11.420;2022-12-16T17:12:19;40.37;;;30.00;;
8584;SDS011;7180;52.742;11.420;2022-12-16T17:17:57;34.30;;;28.00;;
8584;SDS011;7180;52.742;11.420;2022-12-16T17:20:41;36.40;;;28.97;;
8584;SDS011;7180;52.742;11.420;2022-12-16T17:23:25;34.40;;;28.00;;
8584;SDS011;7180;52.742;11.420;2022-12-16T17:26:09;37.23;;;28.83;;
8584;SDS011;7180;52.742;11.420;2022-12-16T17:28:53;35.07;;;28.67;;
8584;SDS011;7180;52.742;11.420;2022-12-16T17:31:36;35.70;;;29.03;;
8584;SDS011;7180;52.742;11.420;2022-12-16T17:34:20;38.37;;;28.90;;
8584;SDS011;7180;52.742;11.420;2022-12-16T17:37:04;37.83;;;29.30;;
8584;SDS011;7180;52.742;11.420;2022-12-16T17:39:48;34.87;;;27.97;;
8584;SDS011;7180;52.742;11.420;2022-12-16T17:42:32;35.37;;;28.87;;
8584;SDS011;7180;52.742;11.420;2022-12-16T17:45:16;38.30;;;28.40;;
8584;SDS011;7180;52.742;11.420;2022-12-16T17:48:00;34.87;;;28.40;;
8584;SDS011;7180;52.742;11.420;2022-12-16T17:50:44;36.80;;;28.80;;
8584;SDS011;7180;52.742;11.420;2022-12-16T17:53:29;34.87;;;28.63;;
8584;SDS011;7180;52.742;11.420;2022-12-16T17:56:13;34.93;;;28.90;;
8584;SDS011;7180;52.742;11.420;2022-12-16T17:58:57;37.10;;;28.90;;
8584;SDS011;7180;52.742;11.420;2022-12-16T18:01:41;33.77;;;27.97;;
8584;SDS011;7180;52.742;11.420;2022-12-16T18:04:25;36.60;;;28.47;;
8584;SDS011;7180;52.742;11.420;2022-12-16T18:07:09;38.80;;;29.47;;